createdAt,value
2018-07-15T00:00:10.817Z,58.45
2018-07-15T00:01:17.645Z,58.45
2018-07-15T00:02:25.104Z,58.55
2018-07-15T00:03:31.839Z,58.67
2018-07-15T00:04:38.557Z,58.70
2018-07-15T00:05:45.271Z,58.69
2018-07-15T00:06:52.031Z,58.64
2018-07-15T00:07:58.750Z,58.70
2018-07-15T00:09:05.482Z,58.68
2018-07-15T00:10:12.242Z,58.76
2018-07-15T00:11:18.999Z,58.78
2018-07-15T00:12:25.718Z,58.85
2018-07-15T00:13:32.450Z,58.90
2018-07-15T00:14:39.189Z,59.00
2018-07-15T00:15:45.918Z,59.05
2018-07-15T00:16:52.674Z,59.03
2018-07-15T00:17:59.408Z,59.07
2018-07-15T00:19:06.138Z,59.09
2018-07-15T00:20:12.949Z,59.11
2018-07-15T00:21:19.686Z,59.07
2018-07-15T00:22:26.449Z,59.07
2018-07-15T00:23:33.173Z,59.11
2018-07-15T00:24:39.897Z,59.21
2018-07-15T00:25:46.613Z,59.19
2018-07-15T00:26:53.365Z,59.23
2018-07-15T00:28:00.162Z,59.27
2018-07-15T00:29:07.253Z,59.29
2018-07-15T00:30:13.984Z,59.28
2018-07-15T00:31:20.734Z,59.30
2018-07-15T00:32:27.609Z,59.35
2018-07-15T00:33:34.321Z,59.39
2018-07-15T00:34:41.050Z,59.49
2018-07-15T00:35:47.790Z,59.49
2018-07-15T00:36:54.623Z,59.57
2018-07-15T00:38:01.368Z,59.58
2018-07-15T00:39:08.129Z,59.59
2018-07-15T00:40:14.835Z,59.57
2018-07-15T00:41:21.622Z,59.63
2018-07-15T00:42:28.405Z,59.65
2018-07-15T00:43:35.109Z,59.66
2018-07-15T00:44:41.977Z,59.72
2018-07-15T00:45:48.673Z,59.74
2018-07-15T00:46:55.399Z,59.76
2018-07-15T00:48:02.345Z,59.75
2018-07-15T00:49:09.137Z,59.71
2018-07-15T00:50:15.861Z,59.77
2018-07-15T00:51:22.614Z,59.84
2018-07-15T00:52:29.373Z,59.83
2018-07-15T00:53:36.125Z,59.86
2018-07-15T00:54:42.864Z,59.95
2018-07-15T00:55:49.571Z,59.92
2018-07-15T00:56:56.379Z,59.93
2018-07-15T00:58:03.385Z,59.98
2018-07-15T00:59:10.122Z,59.98
2018-07-15T01:00:16.847Z,60.01
2018-07-15T01:01:23.781Z,60.09
2018-07-15T01:02:30.502Z,60.06
2018-07-15T01:03:37.278Z,60.12
2018-07-15T01:04:44.181Z,60.17
2018-07-15T01:05:50.888Z,60.22
2018-07-15T01:06:57.640Z,60.20
2018-07-15T01:08:04.381Z,60.21
2018-07-15T01:09:11.121Z,60.25
2018-07-15T01:10:17.889Z,60.24
2018-07-15T01:11:24.622Z,60.32
2018-07-15T01:12:31.374Z,60.36
2018-07-15T01:13:38.114Z,60.36
2018-07-15T01:14:44.858Z,60.32
2018-07-15T01:15:51.576Z,60.38
2018-07-15T01:16:58.462Z,60.36
2018-07-15T01:18:05.230Z,60.36
2018-07-15T01:19:12.281Z,60.39
2018-07-15T01:20:19.018Z,60.39
2018-07-15T01:21:25.810Z,60.41
2018-07-15T01:22:32.574Z,60.45
2018-07-15T01:23:39.359Z,60.41
2018-07-15T01:24:46.117Z,60.44
2018-07-15T01:25:52.873Z,60.53
2018-07-15T01:26:59.725Z,60.55
2018-07-15T01:28:06.468Z,60.57
2018-07-15T01:29:13.185Z,60.58
2018-07-15T01:30:19.934Z,60.55
2018-07-15T01:31:26.705Z,60.60
2018-07-15T01:32:33.442Z,60.59
2018-07-15T01:33:40.203Z,60.63
2018-07-15T01:34:46.906Z,60.64
2018-07-15T01:35:53.675Z,60.61
2018-07-15T01:37:00.406Z,60.64
2018-07-15T01:38:07.130Z,60.73
2018-07-15T01:39:13.889Z,60.73
2018-07-15T01:40:20.921Z,60.72
2018-07-15T01:41:27.642Z,60.74
2018-07-15T01:42:34.417Z,60.80
2018-07-15T01:43:41.152Z,60.74
2018-07-15T01:44:47.869Z,60.77
2018-07-15T01:45:54.603Z,60.87
2018-07-15T01:47:01.402Z,60.87
2018-07-15T01:48:08.220Z,60.97
2018-07-15T01:49:14.958Z,61.00
2018-07-15T01:50:21.742Z,61.06
2018-07-15T01:51:28.462Z,61.10
2018-07-15T01:52:35.244Z,61.11
2018-07-15T01:53:41.963Z,61.19
2018-07-15T01:54:48.727Z,61.24
2018-07-15T01:55:55.421Z,61.28
2018-07-15T01:57:07.187Z,61.38
2018-07-15T01:58:08.921Z,61.40
2018-07-15T01:59:15.711Z,61.46
2018-07-15T02:00:22.453Z,61.54
2018-07-15T02:01:29.194Z,61.61
2018-07-15T02:02:35.910Z,61.71
2018-07-15T02:03:42.705Z,61.67
2018-07-15T02:04:49.434Z,61.72
2018-07-15T02:05:56.517Z,61.67
2018-07-15T02:07:03.238Z,61.67
2018-07-15T02:08:09.989Z,61.75
2018-07-15T02:09:16.780Z,61.80
2018-07-15T02:10:23.575Z,61.85
2018-07-15T02:11:30.323Z,61.89
2018-07-15T02:12:37.148Z,61.91
2018-07-15T02:13:43.885Z,61.97
2018-07-15T02:14:50.674Z,62.01
2018-07-15T02:15:57.382Z,62.10
2018-07-15T02:17:04.105Z,62.16
2018-07-15T02:18:10.839Z,62.20
2018-07-15T02:19:17.548Z,62.23
2018-07-15T02:20:24.274Z,62.29
2018-07-15T02:21:31.105Z,62.37
2018-07-15T02:22:37.806Z,62.43
2018-07-15T02:23:44.623Z,62.46
2018-07-15T02:24:51.346Z,62.52
2018-07-15T02:25:58.089Z,62.57
2018-07-15T02:27:04.825Z,62.59
2018-07-15T02:28:11.572Z,62.68
2018-07-15T02:29:18.406Z,62.68
2018-07-15T02:30:25.142Z,62.71
2018-07-15T02:31:31.858Z,62.76
2018-07-15T02:32:38.593Z,62.84
2018-07-15T02:33:45.334Z,63.00
2018-07-15T02:34:52.102Z,63.02
2018-07-15T02:35:58.871Z,63.04
2018-07-15T02:37:05.658Z,63.07
2018-07-15T02:38:12.358Z,63.10
2018-07-15T02:39:19.170Z,63.21
2018-07-15T02:40:25.908Z,63.26
2018-07-15T02:41:32.622Z,63.33
2018-07-15T02:42:39.338Z,63.39
2018-07-15T02:43:46.171Z,63.45
2018-07-15T02:44:53.164Z,63.53
2018-07-15T02:45:59.915Z,63.62
2018-07-15T02:47:06.719Z,63.64
2018-07-15T02:48:13.414Z,63.69
2018-07-15T02:49:20.169Z,63.74
2018-07-15T02:50:26.903Z,63.78
2018-07-15T02:51:33.701Z,63.77
2018-07-15T02:52:40.459Z,63.85
2018-07-15T02:53:47.182Z,63.89
2018-07-15T02:54:54.058Z,64.03
2018-07-15T02:56:00.758Z,64.03
2018-07-15T02:57:07.479Z,64.11
2018-07-15T02:58:14.290Z,64.22
2018-07-15T02:59:21.092Z,64.30
2018-07-15T03:00:27.915Z,64.30
2018-07-15T03:01:34.787Z,64.38
2018-07-15T03:02:41.598Z,64.42
2018-07-15T03:03:48.313Z,64.53
2018-07-15T03:04:55.378Z,64.54
2018-07-15T03:06:02.211Z,64.58
2018-07-15T03:07:08.937Z,64.58
2018-07-15T03:08:15.691Z,64.58
2018-07-15T03:09:22.434Z,64.65
2018-07-15T03:10:29.175Z,64.66
2018-07-15T03:11:35.910Z,64.71
2018-07-15T03:12:42.673Z,64.73
2018-07-15T03:13:49.399Z,64.77
2018-07-15T03:14:56.117Z,64.78
2018-07-15T03:16:02.913Z,64.74
2018-07-15T03:17:09.804Z,64.83
2018-07-15T03:18:16.449Z,64.81
2018-07-15T03:19:23.189Z,64.81
2018-07-15T03:20:29.984Z,64.89
2018-07-15T03:21:36.882Z,64.92
2018-07-15T03:22:43.645Z,64.97
2018-07-15T03:23:50.376Z,65.04
2018-07-15T03:24:57.155Z,65.05
2018-07-15T03:26:03.882Z,65.12
2018-07-15T03:27:10.602Z,65.23
2018-07-15T03:28:17.351Z,65.20
2018-07-15T03:29:24.113Z,65.26
2018-07-15T03:30:30.829Z,65.30
2018-07-15T03:31:37.574Z,65.35
2018-07-15T03:32:44.298Z,65.38
2018-07-15T03:33:51.066Z,65.41
2018-07-15T03:34:57.851Z,65.42
2018-07-15T03:36:04.601Z,65.45
2018-07-15T03:37:11.331Z,65.44
2018-07-15T03:38:18.050Z,65.47
2018-07-15T03:39:24.746Z,65.47
2018-07-15T03:40:31.505Z,65.47
2018-07-15T03:41:38.213Z,65.51
2018-07-15T03:42:44.934Z,65.54
2018-07-15T03:43:51.669Z,65.55
2018-07-15T03:44:58.393Z,65.57
2018-07-15T03:46:05.130Z,65.61
2018-07-15T03:47:11.826Z,65.65
2018-07-15T03:48:18.897Z,65.72
2018-07-15T03:49:25.632Z,65.73
2018-07-15T03:50:32.386Z,65.77
2018-07-15T03:51:39.131Z,65.83
2018-07-15T03:52:45.890Z,65.83
2018-07-15T03:53:52.735Z,65.87
2018-07-15T03:54:59.492Z,65.93
2018-07-15T03:56:06.262Z,65.93
2018-07-15T03:57:12.966Z,65.91
2018-07-15T03:58:19.706Z,65.94
2018-07-15T03:59:26.416Z,65.98
2018-07-15T04:00:33.242Z,66.06
2018-07-15T04:01:39.961Z,66.15
2018-07-15T04:02:46.709Z,66.29
2018-07-15T04:03:53.643Z,66.36
2018-07-15T04:05:00.441Z,66.45
2018-07-15T04:06:07.331Z,66.50
2018-07-15T04:07:14.053Z,66.57
2018-07-15T04:08:21.074Z,66.60
2018-07-15T04:09:27.785Z,66.63
2018-07-15T04:10:34.561Z,66.71
2018-07-15T04:11:41.277Z,66.73
2018-07-15T04:12:48.034Z,66.72
2018-07-15T04:13:54.767Z,66.81
2018-07-15T04:15:01.582Z,66.90
2018-07-15T04:16:08.384Z,66.93
2018-07-15T04:17:15.097Z,67.01
2018-07-15T04:18:21.942Z,66.99
2018-07-15T04:19:28.670Z,67.03
2018-07-15T04:20:35.513Z,67.17
2018-07-15T04:21:42.289Z,67.33
2018-07-15T04:22:48.994Z,67.31
2018-07-15T04:23:55.764Z,67.28
2018-07-15T04:25:02.532Z,67.32
2018-07-15T04:26:09.305Z,67.38
2018-07-15T04:27:16.017Z,67.38
2018-07-15T04:28:22.845Z,67.37
2018-07-15T04:29:29.475Z,67.47
2018-07-15T04:30:36.307Z,67.43
2018-07-15T04:31:43.001Z,67.39
2018-07-15T04:32:49.717Z,67.41
2018-07-15T04:33:56.454Z,67.54
2018-07-15T04:35:03.191Z,67.50
2018-07-15T04:36:09.917Z,67.56
2018-07-15T04:37:16.646Z,67.63
2018-07-15T04:38:23.390Z,67.64
2018-07-15T04:39:30.278Z,67.74
2018-07-15T04:40:37.050Z,67.87
2018-07-15T04:41:43.807Z,68.04
2018-07-15T04:42:50.533Z,68.11
2018-07-15T04:43:57.318Z,68.14
2018-07-15T04:45:04.034Z,68.23
2018-07-15T04:46:10.778Z,68.35
2018-07-15T04:47:17.534Z,68.46
2018-07-15T04:48:24.299Z,68.51
2018-07-15T04:49:31.023Z,68.55
2018-07-15T04:50:37.774Z,68.63
2018-07-15T04:51:44.519Z,68.70
2018-07-15T04:52:51.342Z,68.82
2018-07-15T04:53:58.081Z,68.89
2018-07-15T04:55:05.160Z,69.03
2018-07-15T04:56:11.853Z,69.09
2018-07-15T04:57:18.575Z,69.16
2018-07-15T04:58:25.285Z,69.30
2018-07-15T04:59:32.071Z,69.39
2018-07-15T05:00:38.830Z,69.48
2018-07-15T05:01:45.630Z,69.53
2018-07-15T05:02:52.454Z,69.55
2018-07-15T05:03:59.213Z,69.58
2018-07-15T05:05:05.993Z,69.66
2018-07-15T05:06:12.870Z,69.73
2018-07-15T05:07:19.522Z,69.81
2018-07-15T05:08:26.623Z,69.96
2018-07-15T05:09:33.325Z,70.02
2018-07-15T05:10:40.058Z,70.14
2018-07-15T05:11:46.821Z,70.16
2018-07-15T05:12:53.639Z,70.29
2018-07-15T05:14:00.354Z,70.28
2018-07-15T05:15:07.123Z,70.23
2018-07-15T05:16:13.899Z,70.36
2018-07-15T05:17:20.710Z,70.44
2018-07-15T05:18:27.506Z,70.49
2018-07-15T05:19:34.554Z,70.52
2018-07-15T05:20:41.070Z,70.54
2018-07-15T05:21:47.813Z,70.54
2018-07-15T05:22:54.550Z,70.50
2018-07-15T05:24:01.339Z,70.55
2018-07-15T05:25:08.100Z,70.59
2018-07-15T05:26:14.805Z,70.62
2018-07-15T05:27:21.547Z,70.64
2018-07-15T05:28:28.330Z,70.65
2018-07-15T05:29:35.107Z,70.76
2018-07-15T05:30:41.909Z,70.89
2018-07-15T05:31:48.695Z,70.94
2018-07-15T05:32:55.425Z,70.99
2018-07-15T05:34:02.186Z,70.96
2018-07-15T05:35:08.899Z,71.06
2018-07-15T05:36:15.751Z,71.17
2018-07-15T05:37:22.639Z,71.25
2018-07-15T05:38:30.157Z,71.30
2018-07-15T05:39:36.161Z,71.35
2018-07-15T05:40:42.990Z,71.39
2018-07-15T05:41:49.866Z,71.43
2018-07-15T05:42:56.583Z,71.47
2018-07-15T05:44:03.395Z,71.56
2018-07-15T05:45:10.268Z,71.59
2018-07-15T05:46:17.357Z,71.64
2018-07-15T05:47:24.113Z,71.71
2018-07-15T05:48:30.878Z,71.76
2018-07-15T05:49:37.667Z,71.89
2018-07-15T05:50:44.498Z,72.00
2018-07-15T05:51:51.307Z,72.07
2018-07-15T05:52:58.066Z,72.12
2018-07-15T05:54:04.974Z,72.18
2018-07-15T05:55:11.770Z,72.25
2018-07-15T05:56:18.568Z,72.31
2018-07-15T05:57:25.302Z,72.46
2018-07-15T05:58:32.141Z,72.52
2018-07-15T05:59:38.867Z,72.59
2018-07-15T06:00:45.603Z,72.67
2018-07-15T06:01:52.363Z,72.76
2018-07-15T06:02:59.115Z,72.82
2018-07-15T06:04:05.844Z,72.83
2018-07-15T06:05:12.941Z,72.86
2018-07-15T06:06:19.705Z,72.93
2018-07-15T06:07:26.452Z,73.01
2018-07-15T06:08:33.220Z,73.08
2018-07-15T06:09:39.962Z,73.16
2018-07-15T06:10:46.909Z,73.23
2018-07-15T06:11:53.608Z,73.32
2018-07-15T06:13:00.421Z,73.32
2018-07-15T06:14:07.189Z,73.40
2018-07-15T06:15:13.975Z,73.50
2018-07-15T06:16:22.539Z,73.61
2018-07-15T06:17:27.802Z,73.78
2018-07-15T06:18:34.517Z,73.83
2018-07-15T06:19:41.275Z,73.94
2018-07-15T06:20:48.177Z,74.08
2018-07-15T06:21:54.915Z,74.11
2018-07-15T06:23:01.662Z,74.23
2018-07-15T06:24:08.549Z,74.31
2018-07-15T06:25:15.374Z,74.29
2018-07-15T06:26:22.153Z,74.42
2018-07-15T06:27:28.890Z,74.46
2018-07-15T06:28:35.609Z,74.62
2018-07-15T06:29:42.338Z,74.74
2018-07-15T06:30:49.058Z,74.84
2018-07-15T06:31:55.937Z,74.83
2018-07-15T06:33:02.650Z,74.89
2018-07-15T06:34:09.686Z,74.94
2018-07-15T06:35:16.394Z,74.99
2018-07-15T06:36:23.243Z,75.07
2018-07-15T06:37:30.048Z,75.06
2018-07-15T06:38:36.809Z,75.11
2018-07-15T06:39:43.558Z,75.26
2018-07-15T06:40:50.317Z,75.42
2018-07-15T06:41:57.089Z,75.60
2018-07-15T06:43:03.822Z,75.62
2018-07-15T06:44:10.650Z,75.53
2018-07-15T06:45:17.416Z,75.51
2018-07-15T06:46:24.181Z,75.56
2018-07-15T06:47:30.926Z,75.40
2018-07-15T06:48:37.662Z,75.33
2018-07-15T06:49:44.442Z,75.36
2018-07-15T06:50:51.167Z,75.29
2018-07-15T06:51:57.915Z,75.40
2018-07-15T06:53:04.667Z,75.28
2018-07-15T06:54:11.482Z,75.16
2018-07-15T06:55:18.436Z,75.06
2018-07-15T06:56:25.260Z,75.04
2018-07-15T06:57:31.971Z,74.91
2018-07-15T06:58:38.779Z,74.94
2018-07-15T06:59:45.497Z,74.88
2018-07-15T07:00:52.290Z,74.86
2018-07-15T07:01:59.034Z,74.72
2018-07-15T07:03:05.787Z,74.68
2018-07-15T07:04:12.503Z,74.72
2018-07-15T07:05:19.314Z,74.79
2018-07-15T07:06:26.053Z,74.86
2018-07-15T07:07:32.835Z,74.96
2018-07-15T07:08:39.574Z,75.04
2018-07-15T07:09:46.350Z,75.20
2018-07-15T07:10:53.094Z,75.25
2018-07-15T07:11:59.943Z,75.04
2018-07-15T07:13:06.758Z,74.99
2018-07-15T07:14:13.496Z,74.89
2018-07-15T07:15:20.289Z,74.90
2018-07-15T07:16:27.221Z,74.92
2018-07-15T07:17:33.950Z,74.88
2018-07-15T07:18:40.654Z,74.81
2018-07-15T07:19:47.378Z,74.77
2018-07-15T07:20:54.502Z,74.83
2018-07-15T07:22:01.332Z,74.68
2018-07-15T07:23:08.074Z,74.64
2018-07-15T07:24:14.836Z,74.65
2018-07-15T07:25:21.742Z,74.65
2018-07-15T07:26:28.473Z,74.66
2018-07-15T07:27:35.227Z,74.89
2018-07-15T07:28:41.983Z,74.69
2018-07-15T07:29:48.694Z,74.65
2018-07-15T07:30:55.385Z,74.58
2018-07-15T07:32:02.238Z,74.68
2018-07-15T07:33:09.202Z,74.59
2018-07-15T07:34:16.191Z,74.46
2018-07-15T07:35:23.002Z,74.56
2018-07-15T07:36:29.749Z,74.56
2018-07-15T07:37:36.578Z,74.49
2018-07-15T07:38:43.393Z,74.37
2018-07-15T07:39:50.103Z,74.38
2018-07-15T07:40:56.955Z,74.11
2018-07-15T07:42:03.702Z,73.95
2018-07-15T07:43:10.469Z,73.86
2018-07-15T07:44:17.205Z,73.71
2018-07-15T07:45:23.978Z,73.60
2018-07-15T07:46:30.722Z,73.43
2018-07-15T07:47:37.482Z,73.50
2018-07-15T07:48:44.198Z,73.38
2018-07-15T07:49:50.967Z,73.47
2018-07-15T07:50:57.698Z,73.47
2018-07-15T07:52:04.441Z,73.42
2018-07-15T07:53:11.341Z,73.14
2018-07-15T07:54:18.082Z,73.00
2018-07-15T07:55:24.847Z,72.88
2018-07-15T07:56:31.814Z,72.76
2018-07-15T07:57:38.566Z,72.62
2018-07-15T07:58:45.270Z,72.58
2018-07-15T07:59:52.118Z,72.69
2018-07-15T08:00:58.835Z,72.71
2018-07-15T08:02:05.587Z,72.66
2018-07-15T08:03:12.502Z,72.72
2018-07-15T08:04:19.201Z,72.69
2018-07-15T08:05:26.043Z,72.66
2018-07-15T08:06:34.878Z,72.55
2018-07-15T08:07:39.633Z,72.46
2018-07-15T08:08:46.331Z,72.15
2018-07-15T08:09:53.066Z,71.95
2018-07-15T08:10:59.770Z,71.77
2018-07-15T08:12:06.562Z,71.65
2018-07-15T08:13:13.257Z,71.56
2018-07-15T08:14:19.970Z,71.42
2018-07-15T08:15:26.735Z,71.51
2018-07-15T08:16:33.582Z,71.30
2018-07-15T08:17:40.326Z,71.18
2018-07-15T08:18:47.101Z,71.03
2018-07-15T08:19:53.974Z,70.84
2018-07-15T08:21:00.710Z,70.82
2018-07-15T08:22:07.475Z,70.89
2018-07-15T08:23:14.207Z,71.11
2018-07-15T08:24:20.990Z,71.15
2018-07-15T08:25:27.955Z,71.15
2018-07-15T08:26:34.752Z,71.22
2018-07-15T08:27:41.465Z,71.02
2018-07-15T08:28:48.203Z,70.95
2018-07-15T08:29:54.926Z,70.73
2018-07-15T08:31:01.832Z,70.52
2018-07-15T08:32:08.751Z,70.41
2018-07-15T08:33:15.494Z,69.98
2018-07-15T08:34:22.738Z,69.81
2018-07-15T08:35:29.492Z,69.46
2018-07-15T08:36:36.268Z,68.93
2018-07-15T08:37:43.018Z,68.59
2018-07-15T08:38:49.719Z,68.29
2018-07-15T08:39:56.478Z,68.20
2018-07-15T08:41:03.184Z,68.03
2018-07-15T08:42:09.930Z,67.87
2018-07-15T08:43:16.657Z,67.57
2018-07-15T08:44:23.390Z,67.37
2018-07-15T08:45:30.156Z,67.08
2018-07-15T08:46:36.955Z,66.93
2018-07-15T08:47:43.690Z,66.95
2018-07-15T08:48:50.442Z,67.09
2018-07-15T08:49:57.174Z,67.19
2018-07-15T08:51:03.903Z,67.19
2018-07-15T08:52:11.047Z,66.99
2018-07-15T08:53:17.871Z,66.82
2018-07-15T08:54:24.601Z,66.72
2018-07-15T08:55:31.318Z,66.70
2018-07-15T08:56:38.153Z,66.66
2018-07-15T08:57:44.881Z,66.68
2018-07-15T08:58:51.629Z,66.35
2018-07-15T08:59:58.371Z,66.03
2018-07-15T09:01:05.238Z,66.04
2018-07-15T09:02:12.032Z,66.17
2018-07-15T09:03:18.748Z,66.40
2018-07-15T09:04:25.517Z,66.49
2018-07-15T09:05:32.266Z,66.47
2018-07-15T09:06:39.006Z,66.43
2018-07-15T09:07:45.765Z,66.24
2018-07-15T09:08:52.522Z,66.09
2018-07-15T09:09:59.423Z,66.24
2018-07-15T09:11:06.175Z,66.27
2018-07-15T09:12:12.989Z,65.86
2018-07-15T09:13:19.741Z,65.82
2018-07-15T09:14:26.490Z,65.85
2018-07-15T09:15:33.326Z,65.68
2018-07-15T09:16:40.049Z,65.14
2018-07-15T09:17:46.834Z,65.13
2018-07-15T09:18:53.626Z,65.22
2018-07-15T09:20:00.363Z,65.08
2018-07-15T09:21:07.154Z,64.88
2018-07-15T09:22:13.882Z,64.68
2018-07-15T09:23:20.630Z,64.61
2018-07-15T09:24:27.478Z,64.16
2018-07-15T09:25:34.660Z,63.95
2018-07-15T09:26:41.521Z,63.92
2018-07-15T09:27:48.372Z,64.02
2018-07-15T09:28:55.107Z,64.02
2018-07-15T09:30:01.878Z,63.96
2018-07-15T09:31:08.741Z,63.80
2018-07-15T09:32:15.621Z,63.70
2018-07-15T09:33:22.430Z,63.64
2018-07-15T09:34:29.152Z,63.58
2018-07-15T09:35:36.126Z,63.64
2018-07-15T09:36:42.827Z,63.41
2018-07-15T09:37:49.630Z,63.35
2018-07-15T09:38:56.501Z,63.09
2018-07-15T09:40:03.257Z,63.13
2018-07-15T09:41:10.066Z,62.82
2018-07-15T09:42:16.847Z,62.86
2018-07-15T09:43:23.594Z,62.84
2018-07-15T09:44:30.293Z,62.57
2018-07-15T09:45:37.029Z,62.37
2018-07-15T09:46:43.727Z,62.07
2018-07-15T09:47:50.511Z,62.04
2018-07-15T09:48:57.237Z,61.91
2018-07-15T09:50:04.037Z,61.62
2018-07-15T09:51:10.798Z,61.31
2018-07-15T09:52:17.541Z,60.85
2018-07-15T09:53:24.438Z,60.75
2018-07-15T09:54:31.146Z,60.46
2018-07-15T09:55:37.947Z,60.34
2018-07-15T09:56:44.666Z,60.16
2018-07-15T09:57:51.485Z,60.20
2018-07-15T09:58:58.270Z,60.15
2018-07-15T10:00:05.030Z,60.35
2018-07-15T10:01:11.771Z,60.20
2018-07-15T10:02:18.582Z,60.02
2018-07-15T10:03:25.492Z,59.75
2018-07-15T10:04:32.543Z,59.66
2018-07-15T10:05:39.426Z,59.40
2018-07-15T10:06:46.189Z,59.09
2018-07-15T10:07:52.999Z,58.91
2018-07-15T10:08:59.777Z,59.00
2018-07-15T10:10:06.635Z,58.99
2018-07-15T10:11:13.417Z,58.59
2018-07-15T10:12:20.174Z,58.57
2018-07-15T10:13:26.980Z,58.46
2018-07-15T10:14:33.721Z,58.44
2018-07-15T10:15:40.943Z,58.31
2018-07-15T10:16:47.702Z,58.20
2018-07-15T10:17:54.462Z,58.02
2018-07-15T10:19:02.699Z,58.00
2018-07-15T10:20:08.321Z,57.79
2018-07-15T10:21:15.583Z,57.46
2018-07-15T10:22:22.354Z,57.44
2018-07-15T10:23:29.085Z,57.63
2018-07-15T10:24:35.806Z,57.45
2018-07-15T10:25:42.588Z,57.12
2018-07-15T10:26:49.301Z,56.97
2018-07-15T10:27:56.038Z,56.96
2018-07-15T10:29:02.750Z,56.70
2018-07-15T10:30:09.458Z,56.72
2018-07-15T10:31:16.198Z,56.65
2018-07-15T10:32:22.933Z,56.16
2018-07-15T10:33:29.670Z,56.16
2018-07-15T10:34:36.374Z,55.99
2018-07-15T10:35:43.089Z,55.87
2018-07-15T10:36:50.181Z,55.60
2018-07-15T10:37:56.921Z,55.52
2018-07-15T10:39:03.937Z,55.36
2018-07-15T10:40:10.876Z,55.29
2018-07-15T10:41:17.627Z,55.21
2018-07-15T10:42:24.392Z,55.12
2018-07-15T10:43:31.095Z,54.92
2018-07-15T10:44:37.893Z,55.06
2018-07-15T10:45:44.597Z,54.84
2018-07-15T10:46:51.342Z,54.84
2018-07-15T10:47:58.177Z,54.86
2018-07-15T10:49:05.373Z,55.00
2018-07-15T10:50:12.126Z,54.95
2018-07-15T10:51:18.814Z,55.04
2018-07-15T10:52:25.571Z,55.03
2018-07-15T10:53:32.278Z,54.95
2018-07-15T10:54:38.998Z,54.98
2018-07-15T10:55:45.801Z,54.76
2018-07-15T10:56:52.513Z,54.66
2018-07-15T10:57:59.306Z,54.64
2018-07-15T10:59:06.046Z,54.44
2018-07-15T11:00:12.854Z,54.52
2018-07-15T11:01:19.616Z,54.36
2018-07-15T11:02:26.328Z,54.03
2018-07-15T11:03:33.073Z,53.94
2018-07-15T11:04:39.845Z,53.72
2018-07-15T11:05:46.583Z,53.60
2018-07-15T11:06:53.353Z,53.58
2018-07-15T11:08:00.096Z,53.32
2018-07-15T11:09:07.016Z,53.41
2018-07-15T11:10:13.835Z,53.60
2018-07-15T11:11:20.658Z,53.72
2018-07-15T11:12:27.430Z,53.70
2018-07-15T11:13:34.171Z,53.93
2018-07-15T11:14:40.897Z,54.18
2018-07-15T11:15:47.662Z,54.10
2018-07-15T11:16:54.403Z,54.00
2018-07-15T11:18:01.146Z,53.71
2018-07-15T11:19:07.846Z,53.40
2018-07-15T11:20:14.694Z,53.00
2018-07-15T11:21:21.461Z,52.87
2018-07-15T11:22:28.294Z,52.73
2018-07-15T11:23:35.141Z,52.65
2018-07-15T11:24:41.857Z,52.43
2018-07-15T11:25:48.638Z,52.18
2018-07-15T11:26:55.361Z,52.32
2018-07-15T11:28:02.130Z,52.08
2018-07-15T11:29:08.930Z,52.01
2018-07-15T11:30:15.717Z,51.93
2018-07-15T11:31:22.562Z,51.74
2018-07-15T11:32:29.249Z,51.86
2018-07-15T11:33:36.081Z,52.03
2018-07-15T11:34:42.926Z,52.24
2018-07-15T11:35:50.029Z,52.34
2018-07-15T11:36:56.701Z,52.53
2018-07-15T11:38:03.412Z,52.17
2018-07-15T11:39:10.177Z,52.31
2018-07-15T11:40:16.953Z,52.50
2018-07-15T11:41:23.704Z,52.38
2018-07-15T11:42:30.566Z,52.18
2018-07-15T11:43:37.411Z,51.91
2018-07-15T11:44:44.122Z,51.95
2018-07-15T11:45:50.887Z,51.94
2018-07-15T11:46:57.641Z,51.57
2018-07-15T11:48:04.351Z,51.61
2018-07-15T11:49:11.133Z,51.67
2018-07-15T11:50:18.074Z,51.71
2018-07-15T11:51:24.694Z,51.32
2018-07-15T11:52:32.817Z,51.42
2018-07-15T11:53:38.646Z,51.54
2018-07-15T11:54:45.381Z,51.41
2018-07-15T11:55:52.138Z,51.21
2018-07-15T11:56:58.878Z,51.22
2018-07-15T11:58:05.647Z,51.27
2018-07-15T11:59:12.393Z,51.03
2018-07-15T12:00:19.122Z,50.94
2018-07-15T12:01:25.900Z,51.22
2018-07-15T12:02:32.717Z,50.98
2018-07-15T12:03:39.466Z,51.01
2018-07-15T12:04:46.212Z,51.11
2018-07-15T12:05:53.068Z,51.17
2018-07-15T12:07:00.525Z,50.99
2018-07-15T12:08:06.874Z,50.77
2018-07-15T12:09:13.577Z,50.51
2018-07-15T12:10:20.401Z,50.26
2018-07-15T12:11:27.118Z,50.29
2018-07-15T12:12:33.882Z,50.23
2018-07-15T12:13:41.035Z,50.17
2018-07-15T12:14:47.783Z,50.12
2018-07-15T12:15:54.517Z,50.06
2018-07-15T12:17:01.230Z,49.99
2018-07-15T12:18:08.358Z,49.79
2018-07-15T12:19:15.512Z,49.72
2018-07-15T12:20:22.318Z,49.57
2018-07-15T12:21:29.018Z,49.57
2018-07-15T12:22:35.747Z,49.43
2018-07-15T12:23:42.501Z,49.46
2018-07-15T12:24:49.309Z,49.37
2018-07-15T12:25:56.031Z,49.03
2018-07-15T12:27:02.761Z,48.70
2018-07-15T12:28:09.574Z,48.42
2018-07-15T12:29:16.308Z,48.10
2018-07-15T12:30:23.015Z,47.77
2018-07-15T12:31:29.738Z,47.69
2018-07-15T12:32:36.478Z,47.63
2018-07-15T12:33:43.214Z,47.31
2018-07-15T12:34:49.973Z,47.20
2018-07-15T12:35:56.683Z,46.95
2018-07-15T12:37:03.411Z,47.01
2018-07-15T12:38:10.208Z,47.00
2018-07-15T12:39:16.997Z,47.00
2018-07-15T12:40:23.697Z,46.81
2018-07-15T12:41:30.549Z,46.51
2018-07-15T12:42:37.297Z,46.32
2018-07-15T12:43:44.123Z,46.31
2018-07-15T12:44:51.035Z,46.14
2018-07-15T12:45:57.826Z,45.79
2018-07-15T12:47:04.654Z,45.52
2018-07-15T12:48:11.764Z,45.27
2018-07-15T12:49:18.413Z,45.28
2018-07-15T12:50:25.218Z,45.17
2018-07-15T12:51:32.002Z,45.37
2018-07-15T12:52:38.920Z,45.64
2018-07-15T12:53:45.844Z,46.04
2018-07-15T12:54:52.805Z,46.28
2018-07-15T12:55:59.557Z,46.54
2018-07-15T12:57:06.330Z,46.92
2018-07-15T12:58:13.058Z,47.13
2018-07-15T12:59:19.774Z,47.21
2018-07-15T13:00:26.523Z,47.38
2018-07-15T13:01:33.217Z,47.52
2018-07-15T13:02:40.049Z,47.72
2018-07-15T13:03:46.747Z,47.96
2018-07-15T13:04:53.609Z,48.03
2018-07-15T13:06:00.411Z,48.13
2018-07-15T13:07:07.254Z,48.18
2018-07-15T13:08:14.045Z,48.22
2018-07-15T13:09:20.847Z,48.19
2018-07-15T13:10:27.822Z,48.25
2018-07-15T13:11:34.591Z,48.08
2018-07-15T13:12:41.601Z,48.11
2018-07-15T13:13:48.370Z,48.13
2018-07-15T13:14:55.221Z,48.50
2018-07-15T13:16:02.381Z,49.25
2018-07-15T13:17:08.906Z,50.08
2018-07-15T13:18:15.740Z,50.58
2018-07-15T13:19:22.493Z,51.18
2018-07-15T13:20:29.249Z,51.44
2018-07-15T13:21:36.140Z,51.40
2018-07-15T13:22:42.998Z,51.87
2018-07-15T13:23:49.816Z,52.19
2018-07-15T13:24:56.736Z,52.15
2018-07-15T13:26:03.530Z,52.39
2018-07-15T13:27:10.302Z,52.58
2018-07-15T13:28:17.070Z,53.04
2018-07-15T13:29:23.837Z,53.24
2018-07-15T13:30:30.702Z,53.58
2018-07-15T13:31:37.414Z,53.35
2018-07-15T13:32:44.133Z,53.79
2018-07-15T13:33:50.911Z,54.15
2018-07-15T13:34:57.757Z,54.28
2018-07-15T13:36:04.469Z,54.29
2018-07-15T13:37:11.233Z,54.34
2018-07-15T13:38:17.989Z,54.62
2018-07-15T13:39:24.818Z,54.78
2018-07-15T13:40:31.538Z,54.75
2018-07-15T13:41:38.323Z,54.94
2018-07-15T13:42:45.054Z,55.23
2018-07-15T13:43:52.238Z,55.30
2018-07-15T13:44:59.044Z,55.11
2018-07-15T13:46:05.844Z,54.95
2018-07-15T13:47:12.650Z,54.87
2018-07-15T13:48:19.474Z,54.94
2018-07-15T13:49:26.254Z,55.22
2018-07-15T13:50:33.161Z,55.34
2018-07-15T13:51:39.966Z,55.35
2018-07-15T13:52:46.795Z,55.63
2018-07-15T13:53:53.625Z,55.80
2018-07-15T13:55:00.467Z,56.14
2018-07-15T13:56:07.386Z,56.40
2018-07-15T13:57:14.156Z,56.55
2018-07-15T13:58:21.030Z,56.64
2018-07-15T13:59:27.852Z,56.69
2018-07-15T14:00:34.659Z,56.80
2018-07-15T14:01:41.454Z,57.00
2018-07-15T14:02:48.322Z,57.09
2018-07-15T14:03:55.227Z,57.22
2018-07-15T14:05:02.337Z,57.32
2018-07-15T14:06:08.858Z,57.60
2018-07-15T14:07:15.650Z,57.70
2018-07-15T14:08:22.430Z,57.85
2018-07-15T14:09:29.198Z,58.08
2018-07-15T14:10:36.044Z,58.40
2018-07-15T14:11:42.877Z,58.61
2018-07-15T14:12:49.773Z,58.51
2018-07-15T14:13:56.594Z,58.76
2018-07-15T14:15:03.422Z,58.96
2018-07-15T14:16:10.230Z,59.08
2018-07-15T14:17:17.071Z,59.15
2018-07-15T14:18:23.887Z,59.36
2018-07-15T14:19:30.839Z,59.49